createdAt,value
2019-03-10T00:00:39.259Z,0.00
2019-03-10T00:01:39.238Z,0.00
2019-03-10T00:02:39.286Z,0.00
2019-03-10T00:03:39.207Z,0.00
2019-03-10T00:04:39.195Z,0.00
2019-03-10T00:05:39.193Z,0.00
2019-03-10T00:06:39.202Z,0.00
2019-03-10T00:07:39.185Z,0.00
2019-03-10T00:08:39.241Z,0.00
2019-03-10T00:09:39.144Z,0.00
2019-03-10T00:10:39.151Z,0.00
2019-03-10T00:11:39.175Z,0.00
2019-03-10T00:12:39.111Z,0.00
2019-03-10T00:13:39.123Z,0.00
2019-03-10T00:14:39.095Z,0.00
2019-03-10T00:15:39.078Z,0.00
2019-03-10T00:16:39.087Z,0.00
2019-03-10T00:17:39.059Z,0.00
2019-03-10T00:18:39.069Z,0.00
2019-03-10T00:19:39.036Z,0.00
2019-03-10T00:20:39.031Z,0.00
2019-03-10T00:21:39.021Z,0.00
2019-03-10T00:22:39.046Z,0.00
2019-03-10T00:23:39.091Z,0.00
2019-03-10T00:24:38.989Z,0.00
2019-03-10T00:25:38.977Z,0.00
2019-03-10T00:26:38.961Z,0.00
2019-03-10T00:27:38.965Z,0.00
2019-03-10T00:28:39.014Z,0.00
2019-03-10T00:29:38.932Z,0.00
2019-03-10T00:30:38.934Z,0.00
2019-03-10T00:31:38.920Z,0.00
2019-03-10T00:32:38.921Z,0.00
2019-03-10T00:33:38.969Z,0.00
2019-03-10T00:34:38.889Z,0.00
2019-03-10T00:35:38.875Z,0.00
2019-03-10T00:36:38.867Z,0.00
2019-03-10T00:37:38.846Z,0.00
2019-03-10T00:38:38.859Z,0.00
2019-03-10T00:39:38.849Z,0.00
2019-03-10T00:40:38.834Z,0.00
2019-03-10T00:41:38.815Z,0.00
2019-03-10T00:42:38.809Z,0.00
2019-03-10T00:43:38.823Z,0.00
2019-03-10T00:44:38.772Z,0.00
2019-03-10T00:45:38.765Z,0.00
2019-03-10T00:46:38.754Z,0.00
2019-03-10T00:47:38.752Z,0.00
2019-03-10T00:48:38.767Z,0.00
2019-03-10T00:49:38.729Z,0.00
2019-03-10T00:50:38.720Z,0.00
2019-03-10T00:51:38.730Z,0.00
2019-03-10T00:52:38.710Z,0.00
2019-03-10T00:53:38.687Z,0.00
2019-03-10T00:54:38.702Z,0.00
2019-03-10T00:55:38.660Z,0.00
2019-03-10T00:56:38.645Z,0.00
2019-03-10T00:57:38.647Z,0.00
2019-03-10T00:58:38.668Z,0.00
2019-03-10T00:59:38.639Z,0.00
2019-03-10T01:00:38.629Z,0.00
2019-03-10T01:01:38.611Z,0.00
2019-03-10T01:02:38.585Z,0.00
2019-03-10T01:03:38.592Z,0.00
2019-03-10T01:04:38.591Z,0.00
2019-03-10T01:05:38.603Z,0.00
2019-03-10T01:06:38.539Z,0.00
2019-03-10T01:07:38.534Z,0.00
2019-03-10T01:08:38.601Z,0.00
2019-03-10T01:09:38.530Z,0.00
2019-03-10T01:10:38.504Z,0.00
2019-03-10T01:11:38.495Z,0.00
2019-03-10T01:12:38.481Z,0.00
2019-03-10T01:13:38.474Z,0.00
2019-03-10T01:14:38.532Z,0.00
2019-03-10T01:15:38.456Z,0.00
2019-03-10T01:16:38.447Z,0.00
2019-03-10T01:17:38.441Z,0.00
2019-03-10T01:18:38.447Z,0.00
2019-03-10T01:19:38.406Z,0.00
2019-03-10T01:20:38.447Z,0.00
2019-03-10T01:21:38.411Z,0.00
2019-03-10T01:22:38.382Z,0.00
2019-03-10T01:23:38.385Z,0.00
2019-03-10T01:24:38.353Z,0.00
2019-03-10T01:25:38.363Z,0.00
2019-03-10T01:26:38.358Z,0.00
2019-03-10T01:27:38.321Z,0.00
2019-03-10T01:28:38.315Z,0.00
2019-03-10T01:29:38.325Z,0.00
2019-03-10T01:30:38.874Z,0.00
2019-03-10T01:31:38.278Z,0.00
2019-03-10T01:32:38.292Z,0.00
2019-03-10T01:33:38.266Z,0.00
2019-03-10T01:34:38.257Z,0.00
2019-03-10T01:35:38.305Z,0.00
2019-03-10T01:36:38.225Z,0.00
2019-03-10T01:37:38.219Z,0.00
2019-03-10T01:38:38.204Z,0.00
2019-03-10T01:39:38.199Z,0.00
2019-03-10T01:40:38.240Z,0.00
2019-03-10T01:41:38.187Z,0.00
2019-03-10T01:42:38.167Z,0.00
2019-03-10T01:43:38.164Z,0.00
2019-03-10T01:44:38.146Z,0.00
2019-03-10T01:45:38.163Z,0.00
2019-03-10T01:46:38.142Z,0.00
2019-03-10T01:47:38.137Z,0.00
2019-03-10T01:48:38.104Z,0.00
2019-03-10T01:49:38.095Z,0.00
2019-03-10T01:50:38.111Z,0.00
2019-03-10T01:51:38.076Z,0.00
2019-03-10T01:52:38.063Z,0.00
2019-03-10T01:53:38.051Z,0.00
2019-03-10T01:54:38.136Z,0.00
2019-03-10T01:55:38.036Z,0.00
2019-03-10T01:56:38.080Z,0.00
2019-03-10T01:57:38.008Z,0.00
2019-03-10T01:58:38.000Z,0.00
2019-03-10T01:59:37.993Z,0.00
2019-03-10T02:00:37.975Z,0.00
2019-03-10T02:01:37.984Z,0.00
2019-03-10T02:02:37.959Z,0.00
2019-03-10T02:03:37.952Z,0.00
2019-03-10T02:04:37.953Z,0.00
2019-03-10T02:05:37.921Z,0.00
2019-03-10T02:06:37.949Z,0.00
2019-03-10T02:07:37.901Z,0.00
2019-03-10T02:08:37.894Z,0.00
2019-03-10T02:09:37.881Z,0.00
2019-03-10T02:10:37.872Z,0.00
2019-03-10T02:11:37.881Z,0.00
2019-03-10T02:12:37.856Z,0.00
2019-03-10T02:13:37.838Z,0.00
2019-03-10T02:14:37.834Z,0.00
2019-03-10T02:15:37.846Z,0.00
2019-03-10T02:16:37.822Z,0.00
2019-03-10T02:17:37.827Z,0.00
2019-03-10T02:18:37.798Z,0.00
2019-03-10T02:19:37.779Z,0.00
2019-03-10T02:20:37.805Z,0.00
2019-03-10T02:21:37.774Z,0.00
2019-03-10T02:22:37.779Z,0.00
2019-03-10T02:23:37.789Z,0.00
2019-03-10T02:24:37.732Z,0.00
2019-03-10T02:25:37.716Z,0.00
2019-03-10T02:26:37.708Z,0.00
2019-03-10T02:27:37.816Z,0.00
2019-03-10T02:28:37.721Z,0.00
2019-03-10T02:29:37.696Z,0.00
2019-03-10T02:30:37.743Z,0.00
2019-03-10T02:31:37.673Z,0.00
2019-03-10T02:32:37.682Z,0.00
2019-03-10T02:33:37.650Z,0.00
2019-03-10T02:34:37.621Z,0.00
2019-03-10T02:35:37.612Z,0.00
2019-03-10T02:36:37.620Z,0.00
2019-03-10T02:37:37.594Z,0.00
2019-03-10T02:38:37.601Z,0.00
2019-03-10T02:39:37.570Z,0.00
2019-03-10T02:40:37.561Z,0.00
2019-03-10T02:41:37.541Z,0.00
2019-03-10T02:42:37.541Z,0.00
2019-03-10T02:43:37.688Z,0.00
2019-03-10T02:44:37.509Z,0.00
2019-03-10T02:45:37.510Z,0.00
2019-03-10T02:46:37.494Z,0.00
2019-03-10T02:47:37.489Z,0.00
2019-03-10T02:48:37.518Z,0.00
2019-03-10T02:49:37.469Z,0.00
2019-03-10T02:50:37.451Z,0.00
2019-03-10T02:51:37.539Z,0.00
2019-03-10T02:52:37.431Z,0.00
2019-03-10T02:53:37.467Z,0.00
2019-03-10T02:54:37.439Z,0.00
2019-03-10T02:55:37.405Z,0.00
2019-03-10T02:56:37.410Z,0.00
2019-03-10T02:57:37.383Z,0.00
2019-03-10T02:58:37.383Z,0.00
2019-03-10T02:59:37.378Z,0.00
2019-03-10T03:00:37.346Z,0.00
2019-03-10T03:01:37.342Z,0.00
2019-03-10T03:02:37.388Z,0.00
2019-03-10T03:03:37.322Z,0.00
2019-03-10T03:04:37.336Z,0.00
2019-03-10T03:05:37.330Z,0.00
2019-03-10T03:06:37.285Z,0.00
2019-03-10T03:07:37.281Z,0.00
2019-03-10T03:08:37.261Z,0.00
2019-03-10T03:09:37.259Z,0.00
2019-03-10T03:10:37.281Z,0.00
2019-03-10T03:11:37.231Z,0.00
2019-03-10T03:12:37.320Z,0.00
2019-03-10T03:13:37.222Z,0.00
2019-03-10T03:14:37.202Z,0.00
2019-03-10T03:15:37.279Z,0.00
2019-03-10T03:16:37.183Z,0.00
2019-03-10T03:17:37.167Z,0.00
2019-03-10T03:18:37.165Z,0.00
2019-03-10T03:19:37.142Z,0.00
2019-03-10T03:20:37.166Z,0.00
2019-03-10T03:21:43.071Z,0.00
2019-03-10T03:22:38.119Z,0.00
2019-03-10T03:23:37.104Z,0.00
2019-03-10T03:24:37.116Z,0.00
2019-03-10T03:25:37.126Z,0.00
2019-03-10T03:26:37.076Z,0.00
2019-03-10T03:27:37.087Z,0.00
2019-03-10T03:28:37.064Z,0.00
2019-03-10T03:29:37.085Z,0.00
2019-03-10T03:30:37.056Z,0.00
2019-03-10T03:31:37.045Z,0.00
2019-03-10T03:32:37.083Z,0.00
2019-03-10T03:33:36.998Z,0.00
2019-03-10T03:34:36.998Z,0.00
2019-03-10T03:35:37.004Z,0.00
2019-03-10T03:36:37.003Z,0.00
2019-03-10T03:37:36.957Z,0.00
2019-03-10T03:38:36.996Z,0.00
2019-03-10T03:39:36.937Z,0.00
2019-03-10T03:40:36.936Z,0.00
2019-03-10T03:41:37.005Z,0.00
2019-03-10T03:42:36.920Z,0.00
2019-03-10T03:43:36.932Z,0.00
2019-03-10T03:44:36.887Z,0.00
2019-03-10T03:45:36.886Z,0.00
2019-03-10T03:46:36.905Z,0.00
2019-03-10T03:47:36.868Z,0.00
2019-03-10T03:48:36.845Z,0.00
2019-03-10T03:49:36.843Z,0.00
2019-03-10T03:50:36.834Z,0.00
2019-03-10T03:51:36.827Z,0.00
2019-03-10T03:52:36.797Z,0.00
2019-03-10T03:53:36.864Z,0.00
2019-03-10T03:54:36.777Z,0.00
2019-03-10T03:55:36.800Z,0.00
2019-03-10T03:56:36.778Z,0.00
2019-03-10T03:57:36.784Z,0.00
2019-03-10T03:58:36.788Z,0.00
2019-03-10T03:59:36.732Z,0.00
2019-03-10T04:00:36.715Z,0.00
2019-03-10T04:01:36.716Z,0.00
2019-03-10T04:02:36.695Z,0.00
2019-03-10T04:03:36.691Z,0.00
2019-03-10T04:04:36.676Z,0.00
2019-03-10T04:05:36.670Z,0.00
2019-03-10T04:06:36.743Z,0.00
2019-03-10T04:07:36.649Z,0.00
2019-03-10T04:08:36.629Z,0.00
2019-03-10T04:09:36.668Z,0.00
2019-03-10T04:10:36.623Z,0.00
2019-03-10T04:11:36.706Z,0.00
2019-03-10T04:12:36.591Z,0.00
2019-03-10T04:13:36.579Z,0.00
2019-03-10T04:14:36.608Z,0.00
2019-03-10T04:15:36.561Z,0.00
2019-03-10T04:16:36.588Z,0.00
2019-03-10T04:17:36.590Z,0.00
2019-03-10T04:18:36.543Z,0.00
2019-03-10T04:19:36.542Z,0.00
2019-03-10T04:20:36.548Z,0.00
2019-03-10T04:21:36.548Z,0.00
2019-03-10T04:22:36.567Z,0.00
2019-03-10T04:23:36.476Z,0.00
2019-03-10T04:24:36.462Z,0.00
2019-03-10T04:25:36.450Z,0.00
2019-03-10T04:26:36.554Z,0.00
2019-03-10T04:27:36.434Z,0.00
2019-03-10T04:28:36.427Z,0.00
2019-03-10T04:29:36.417Z,0.00
2019-03-10T04:30:36.404Z,0.00
2019-03-10T04:31:36.416Z,0.00
2019-03-10T04:32:36.394Z,0.00
2019-03-10T04:33:36.417Z,0.00
2019-03-10T04:34:36.371Z,0.00
2019-03-10T04:35:36.351Z,0.00
2019-03-10T04:36:36.408Z,0.00
2019-03-10T04:37:36.330Z,0.00
2019-03-10T04:38:36.348Z,0.00
2019-03-10T04:39:36.328Z,0.00
2019-03-10T04:40:36.305Z,0.00
2019-03-10T04:41:36.316Z,0.00
2019-03-10T04:42:36.272Z,0.00
2019-03-10T04:43:36.266Z,0.00
2019-03-10T04:44:36.481Z,0.00
2019-03-10T04:45:36.245Z,0.00
2019-03-10T04:46:36.237Z,0.00
2019-03-10T04:47:36.398Z,0.00
2019-03-10T04:48:36.211Z,0.00
2019-03-10T04:49:36.200Z,0.00
2019-03-10T04:50:36.194Z,0.00
2019-03-10T04:51:36.181Z,0.00
2019-03-10T04:52:36.190Z,0.00
2019-03-10T04:53:36.156Z,0.00
2019-03-10T04:54:36.150Z,0.00
2019-03-10T04:55:36.148Z,0.00
2019-03-10T04:56:36.134Z,0.00
2019-03-10T04:57:36.163Z,0.00
2019-03-10T04:58:36.103Z,0.00
2019-03-10T04:59:36.096Z,0.00
2019-03-10T05:00:36.097Z,0.00
2019-03-10T05:01:36.094Z,0.00
2019-03-10T05:02:36.070Z,0.00
2019-03-10T05:03:36.077Z,0.00
2019-03-10T05:04:36.044Z,4.00
2019-03-10T05:05:36.030Z,4.00
2019-03-10T05:06:44.414Z,0.00
2019-03-10T05:07:36.018Z,4.00
2019-03-10T05:08:36.050Z,4.00
2019-03-10T05:09:35.985Z,4.00
2019-03-10T05:10:35.982Z,4.00
2019-03-10T05:11:35.973Z,8.00
2019-03-10T05:12:35.962Z,8.00
2019-03-10T05:13:36.002Z,8.00
2019-03-10T05:14:35.988Z,12.00
2019-03-10T05:15:35.933Z,12.00
2019-03-10T05:16:35.927Z,12.00
2019-03-10T05:17:35.920Z,16.00
2019-03-10T05:18:35.918Z,16.00
2019-03-10T05:19:35.895Z,20.00
2019-03-10T05:20:35.918Z,20.00
2019-03-10T05:21:35.865Z,24.00
2019-03-10T05:22:35.856Z,32.00
2019-03-10T05:23:35.840Z,36.00
2019-03-10T05:24:35.858Z,44.00
2019-03-10T05:25:35.816Z,48.00
2019-03-10T05:26:35.829Z,52.00
2019-03-10T05:27:35.796Z,56.00
2019-03-10T05:28:35.805Z,68.00
2019-03-10T05:29:35.851Z,80.00
2019-03-10T05:30:35.767Z,88.00
2019-03-10T05:31:35.764Z,100.00
2019-03-10T05:32:35.772Z,100.00
2019-03-10T05:33:35.730Z,116.00
2019-03-10T05:34:35.766Z,124.00
2019-03-10T05:35:35.715Z,136.00
2019-03-10T05:36:35.727Z,144.00
2019-03-10T05:37:35.754Z,164.00
2019-03-10T05:38:35.698Z,176.00
2019-03-10T05:39:35.681Z,192.00
2019-03-10T05:40:35.678Z,208.00
2019-03-10T05:41:35.659Z,220.00
2019-03-10T05:42:35.712Z,236.00
2019-03-10T05:43:35.642Z,244.00
2019-03-10T05:44:35.645Z,264.00
2019-03-10T05:45:35.681Z,284.00
2019-03-10T05:46:35.595Z,296.00
2019-03-10T05:47:35.606Z,320.00
2019-03-10T05:48:35.580Z,336.00
2019-03-10T05:49:35.638Z,356.00
2019-03-10T05:50:35.591Z,376.00
2019-03-10T05:51:35.546Z,392.00
2019-03-10T05:52:35.563Z,416.00
2019-03-10T05:53:35.526Z,448.00
2019-03-10T05:54:35.524Z,480.00
2019-03-10T05:55:35.507Z,536.00
2019-03-10T05:56:35.518Z,592.00
2019-03-10T05:57:35.480Z,632.00
2019-03-10T05:58:35.574Z,676.00
2019-03-10T05:59:35.472Z,728.00
2019-03-10T06:00:42.681Z,732.00
2019-03-10T06:01:36.455Z,728.00
2019-03-10T06:02:35.439Z,728.00
2019-03-10T06:03:35.416Z,712.00
2019-03-10T06:04:35.411Z,696.00
2019-03-10T06:05:35.408Z,684.00
2019-03-10T06:06:35.418Z,684.00
2019-03-10T06:07:35.391Z,700.00
2019-03-10T06:08:35.369Z,716.00
2019-03-10T06:09:35.352Z,744.00
2019-03-10T06:10:35.372Z,760.00
2019-03-10T06:11:35.363Z,776.00
2019-03-10T06:12:35.330Z,776.00
2019-03-10T06:13:35.341Z,784.00
2019-03-10T06:14:35.300Z,780.00
2019-03-10T06:15:35.287Z,780.00
2019-03-10T06:16:35.345Z,800.00
2019-03-10T06:17:35.289Z,820.00
2019-03-10T06:18:35.270Z,848.00
2019-03-10T06:19:35.256Z,872.00
2019-03-10T06:20:35.279Z,900.00
2019-03-10T06:21:35.237Z,924.00
2019-03-10T06:22:35.301Z,956.00
2019-03-10T06:23:35.240Z,996.00
2019-03-10T06:24:35.235Z,1048.00
2019-03-10T06:25:35.240Z,1104.00
2019-03-10T06:26:35.222Z,1172.00
2019-03-10T06:27:35.451Z,1252.00
2019-03-10T06:28:35.176Z,1320.00
2019-03-10T06:29:35.153Z,1388.00
2019-03-10T06:30:35.135Z,1468.00
2019-03-10T06:31:35.126Z,1552.00
2019-03-10T06:32:35.137Z,1660.00
2019-03-10T06:33:35.135Z,1848.00
2019-03-10T06:34:35.099Z,2000.00
2019-03-10T06:35:35.096Z,2136.00
2019-03-10T06:36:35.075Z,2276.00
2019-03-10T06:37:35.063Z,2448.00
2019-03-10T06:38:35.067Z,2628.00
2019-03-10T06:39:35.045Z,2708.00
2019-03-10T06:40:35.029Z,2784.00
2019-03-10T06:41:35.016Z,2772.00
2019-03-10T06:42:35.017Z,2744.00
2019-03-10T06:43:35.006Z,2700.00
2019-03-10T06:44:35.031Z,2672.00
2019-03-10T06:45:34.994Z,2560.00
2019-03-10T06:46:34.963Z,2516.00
2019-03-10T06:47:34.957Z,2500.00
2019-03-10T06:48:34.961Z,2640.00
2019-03-10T06:49:34.936Z,2748.00
2019-03-10T06:50:34.919Z,2904.00
2019-03-10T06:51:34.909Z,2904.00
2019-03-10T06:52:34.910Z,2776.00
2019-03-10T06:53:34.923Z,2652.00
2019-03-10T06:54:34.879Z,2592.00
2019-03-10T06:55:34.876Z,2492.00
2019-03-10T06:56:34.877Z,2516.00
2019-03-10T06:57:34.845Z,2520.00
2019-03-10T06:58:34.875Z,2716.00
2019-03-10T06:59:34.823Z,2788.00
2019-03-10T07:01:35.893Z,2760.00
2019-03-10T07:02:34.802Z,2896.00
2019-03-10T07:03:34.782Z,2904.00
2019-03-10T07:04:34.791Z,3040.00
2019-03-10T07:05:34.789Z,3112.00
2019-03-10T07:06:34.762Z,3240.00
2019-03-10T07:07:34.779Z,3500.00
2019-03-10T07:08:34.735Z,3552.00
2019-03-10T07:09:34.798Z,3388.00
2019-03-10T07:10:34.713Z,3220.00
2019-03-10T07:11:34.693Z,3376.00
2019-03-10T07:12:34.687Z,3536.00
2019-03-10T07:13:34.678Z,3644.00
2019-03-10T07:14:34.697Z,3828.00
2019-03-10T07:15:34.655Z,3880.00
2019-03-10T07:16:34.649Z,3852.00
2019-03-10T07:17:34.675Z,3880.00
2019-03-10T07:18:34.624Z,4040.00
2019-03-10T07:19:34.653Z,4152.00
2019-03-10T07:20:34.602Z,4404.00
2019-03-10T07:21:34.603Z,4588.00
2019-03-10T07:22:34.583Z,4492.00
2019-03-10T07:23:34.568Z,4460.00
2019-03-10T07:24:34.573Z,4668.00
2019-03-10T07:25:34.557Z,4880.00
2019-03-10T07:26:34.535Z,4912.00
2019-03-10T07:27:34.529Z,4744.00
2019-03-10T07:28:34.540Z,4440.00
2019-03-10T07:29:34.521Z,4276.00
2019-03-10T07:30:34.507Z,4164.00
2019-03-10T07:31:34.533Z,4044.00
2019-03-10T07:32:34.492Z,4036.00
2019-03-10T07:33:34.496Z,4120.00
2019-03-10T07:34:34.551Z,4204.00
2019-03-10T07:35:34.451Z,4252.00
2019-03-10T07:36:34.435Z,4428.00
2019-03-10T07:37:34.424Z,4456.00
2019-03-10T07:38:34.419Z,4432.00
2019-03-10T07:39:34.431Z,4376.00
2019-03-10T07:40:34.407Z,4300.00
2019-03-10T07:41:34.556Z,4436.00
2019-03-10T07:42:34.371Z,4540.00
2019-03-10T07:43:34.351Z,4400.00
2019-03-10T07:44:34.359Z,4448.00
2019-03-10T07:45:34.356Z,4548.00
2019-03-10T07:46:34.327Z,4620.00
2019-03-10T07:47:34.312Z,4676.00
2019-03-10T07:48:34.310Z,4740.00
2019-03-10T07:49:34.292Z,4736.00
2019-03-10T07:50:34.366Z,4844.00
2019-03-10T07:51:34.267Z,4968.00
2019-03-10T07:52:34.259Z,5092.00
2019-03-10T07:53:34.250Z,5164.00
2019-03-10T07:54:34.243Z,5328.00
2019-03-10T07:55:34.286Z,5452.00
2019-03-10T07:56:34.242Z,5276.00
2019-03-10T07:57:34.205Z,5260.00
2019-03-10T07:58:34.195Z,5344.00
2019-03-10T07:59:34.211Z,5344.00
2019-03-10T08:00:34.191Z,5580.00
2019-03-10T08:01:34.169Z,5636.00
2019-03-10T08:02:34.150Z,5264.00
2019-03-10T08:03:34.139Z,5460.00
2019-03-10T08:04:34.147Z,5492.00
2019-03-10T08:05:34.137Z,5828.00
2019-03-10T08:06:34.121Z,6180.00
2019-03-10T08:07:34.110Z,6440.00
2019-03-10T08:08:34.083Z,6540.00
2019-03-10T08:09:34.115Z,6532.00
2019-03-10T08:10:34.093Z,6500.00
2019-03-10T08:11:34.058Z,6544.00
2019-03-10T08:12:34.043Z,6680.00
2019-03-10T08:13:34.079Z,6836.00
2019-03-10T08:14:34.051Z,6996.00
2019-03-10T08:15:34.056Z,6944.00
2019-03-10T08:16:34.003Z,6628.00
2019-03-10T08:17:33.989Z,6060.00
2019-03-10T08:18:34.003Z,5560.00
2019-03-10T08:19:33.976Z,5572.00
2019-03-10T08:20:33.995Z,5564.00
2019-03-10T08:21:33.950Z,5452.00
2019-03-10T08:22:33.937Z,5364.00
2019-03-10T08:23:33.925Z,5516.00
2019-03-10T08:24:33.915Z,5800.00
2019-03-10T08:25:33.905Z,6636.00
2019-03-10T08:26:33.907Z,7328.00
2019-03-10T08:27:33.885Z,7448.00
2019-03-10T08:28:33.886Z,7652.00
2019-03-10T08:29:33.863Z,7828.00
2019-03-10T08:30:33.859Z,7948.00
2019-03-10T08:31:33.863Z,7680.00
2019-03-10T08:32:33.855Z,7272.00
2019-03-10T08:33:33.819Z,7044.00
2019-03-10T08:34:33.835Z,6552.00
2019-03-10T08:35:33.797Z,6488.00
2019-03-10T08:36:33.814Z,6692.00
2019-03-10T08:37:33.777Z,6836.00
2019-03-10T08:38:33.764Z,6956.00
2019-03-10T08:39:33.755Z,6872.00
2019-03-10T08:40:33.764Z,6672.00
2019-03-10T08:41:33.766Z,6724.00
2019-03-10T08:42:33.728Z,6824.00
2019-03-10T08:43:33.712Z,6944.00
2019-03-10T08:44:33.707Z,7016.00
2019-03-10T08:45:33.688Z,6992.00
2019-03-10T08:46:33.721Z,7032.00
2019-03-10T08:47:33.669Z,7132.00
2019-03-10T08:48:33.675Z,7448.00
2019-03-10T08:49:44.380Z,7300.00
2019-03-10T08:50:34.638Z,6920.00
2019-03-10T08:51:33.656Z,6776.00
2019-03-10T08:52:33.619Z,7072.00
2019-03-10T08:53:33.617Z,7544.00
2019-03-10T08:54:33.598Z,7892.00
2019-03-10T08:55:33.584Z,8144.00
2019-03-10T08:56:33.585Z,8244.00
2019-03-10T08:57:33.575Z,7864.00
2019-03-10T08:58:33.557Z,7904.00
2019-03-10T08:59:33.571Z,7828.00
2019-03-10T09:00:33.531Z,7836.00
2019-03-10T09:01:33.549Z,7764.00
2019-03-10T09:02:33.589Z,7852.00
2019-03-10T09:03:33.495Z,8120.00
2019-03-10T09:04:33.497Z,8288.00
2019-03-10T09:05:33.509Z,8248.00
2019-03-10T09:06:33.511Z,8400.00
2019-03-10T09:07:33.492Z,8272.00
2019-03-10T09:08:33.441Z,8368.00
2019-03-10T09:09:33.495Z,8424.00
2019-03-10T09:10:33.424Z,8596.00
2019-03-10T09:11:33.469Z,8852.00
2019-03-10T09:12:33.461Z,8868.00
2019-03-10T09:13:33.420Z,8772.00
2019-03-10T09:14:33.381Z,8956.00
2019-03-10T09:15:33.377Z,9260.00
2019-03-10T09:16:33.477Z,9504.00
2019-03-10T09:17:33.352Z,9584.00
2019-03-10T09:18:33.416Z,9552.00
2019-03-10T09:19:33.337Z,9368.00
2019-03-10T09:20:33.322Z,9192.00
2019-03-10T09:21:33.343Z,9100.00
2019-03-10T09:22:33.323Z,9124.00
2019-03-10T09:23:33.327Z,8988.00
2019-03-10T09:24:33.279Z,9132.00
2019-03-10T09:25:33.280Z,9220.00
2019-03-10T09:26:33.259Z,9168.00
2019-03-10T09:27:33.284Z,9224.00
2019-03-10T09:28:33.255Z,9012.00
2019-03-10T09:29:33.225Z,8720.00
2019-03-10T09:30:33.369Z,8548.00
2019-03-10T09:31:33.199Z,8432.00
2019-03-10T09:32:33.191Z,8368.00
2019-03-10T09:33:33.203Z,8424.00
2019-03-10T09:34:33.165Z,8552.00
2019-03-10T09:35:33.161Z,8632.00
2019-03-10T09:36:33.179Z,8724.00
2019-03-10T09:37:33.152Z,8696.00
2019-03-10T09:38:33.131Z,8688.00
2019-03-10T09:39:33.142Z,8548.00
2019-03-10T09:40:33.110Z,8536.00
2019-03-10T09:41:33.098Z,8568.00
2019-03-10T09:42:33.971Z,8600.00
2019-03-10T09:43:33.086Z,8764.00
2019-03-10T09:44:33.100Z,8668.00
2019-03-10T09:45:33.064Z,8552.00
2019-03-10T09:46:33.100Z,8568.00
2019-03-10T09:47:33.049Z,8668.00
2019-03-10T09:48:33.027Z,8344.00
2019-03-10T09:49:33.032Z,8852.00
2019-03-10T09:50:33.058Z,9804.00
2019-03-10T09:51:33.001Z,10068.00
2019-03-10T09:52:33.028Z,9956.00
2019-03-10T09:53:32.964Z,9868.00
2019-03-10T09:54:33.020Z,9332.00
2019-03-10T09:55:32.975Z,9092.00
2019-03-10T09:56:32.976Z,9324.00
2019-03-10T09:57:32.983Z,9588.00
2019-03-10T09:58:32.915Z,9584.00
2019-03-10T09:59:32.954Z,9336.00
2019-03-10T10:00:32.896Z,8788.00
2019-03-10T10:01:32.902Z,9292.00
2019-03-10T10:02:32.918Z,9212.00
2019-03-10T10:03:32.855Z,9672.00
2019-03-10T10:04:32.855Z,9284.00
2019-03-10T10:05:32.869Z,8840.00
2019-03-10T10:07:33.934Z,7416.00
2019-03-10T10:08:32.840Z,7532.00
2019-03-10T10:09:32.795Z,7636.00
2019-03-10T10:10:32.813Z,7728.00
2019-03-10T10:11:32.769Z,8240.00
2019-03-10T10:12:32.762Z,8244.00
2019-03-10T10:13:32.758Z,8296.00
2019-03-10T10:14:32.738Z,8408.00
2019-03-10T10:15:32.764Z,8604.00
2019-03-10T10:16:32.714Z,8440.00
2019-03-10T10:17:32.707Z,8448.00
2019-03-10T10:18:32.704Z,8052.00
2019-03-10T10:19:32.710Z,7744.00
2019-03-10T10:20:32.688Z,8132.00
2019-03-10T10:21:32.708Z,8196.00
2019-03-10T10:22:32.663Z,8228.00
2019-03-10T10:23:32.656Z,8188.00
2019-03-10T10:24:32.639Z,8252.00
2019-03-10T10:25:32.731Z,7796.00
2019-03-10T10:26:32.737Z,7488.00
2019-03-10T10:27:32.680Z,7288.00
2019-03-10T10:28:32.616Z,6900.00
2019-03-10T10:29:32.616Z,6608.00
2019-03-10T10:30:32.572Z,6520.00
2019-03-10T10:31:32.627Z,6600.00
2019-03-10T10:32:32.549Z,6888.00
2019-03-10T10:33:32.530Z,6880.00
2019-03-10T10:34:32.523Z,6792.00
2019-03-10T10:35:32.516Z,6740.00
2019-03-10T10:36:32.511Z,6500.00
2019-03-10T10:37:32.532Z,6220.00
2019-03-10T10:38:32.554Z,5956.00
2019-03-10T10:39:32.476Z,5652.00
2019-03-10T10:40:32.478Z,5168.00
2019-03-10T10:41:32.952Z,4936.00
2019-03-10T10:42:32.458Z,4800.00
2019-03-10T10:43:32.492Z,5040.00
2019-03-10T10:44:32.521Z,5144.00
2019-03-10T10:45:32.413Z,4912.00
2019-03-10T10:46:32.390Z,4616.00
2019-03-10T10:47:32.396Z,4376.00
2019-03-10T10:48:32.387Z,4276.00
2019-03-10T10:49:32.370Z,4356.00
2019-03-10T10:50:32.360Z,4568.00
2019-03-10T10:51:32.361Z,4628.00
2019-03-10T10:52:32.360Z,5256.00
2019-03-10T10:53:32.349Z,5532.00
2019-03-10T10:54:32.355Z,5644.00
2019-03-10T10:55:32.340Z,5852.00
2019-03-10T10:56:32.288Z,5604.00
2019-03-10T10:57:32.322Z,5112.00
2019-03-10T10:58:32.298Z,4808.00
2019-03-10T10:59:32.260Z,4572.00
2019-03-10T11:00:32.267Z,4396.00
2019-03-10T11:01:32.238Z,4256.00
2019-03-10T11:02:32.228Z,3988.00
2019-03-10T11:03:32.504Z,3992.00
2019-03-10T11:04:32.206Z,3544.00
2019-03-10T11:05:32.198Z,3092.00
2019-03-10T11:06:32.178Z,2932.00
2019-03-10T11:07:32.317Z,3080.00
2019-03-10T11:08:32.182Z,3444.00
2019-03-10T11:09:32.186Z,3848.00
2019-03-10T11:10:32.141Z,4900.00
2019-03-10T11:11:32.158Z,6112.00
2019-03-10T11:12:32.116Z,7104.00
2019-03-10T11:13:32.168Z,7484.00
2019-03-10T11:14:32.112Z,7640.00
2019-03-10T11:16:33.306Z,6944.00
2019-03-10T11:17:53.077Z,6808.00
2019-03-10T11:18:32.088Z,6500.00
2019-03-10T11:19:32.055Z,6264.00
2019-03-10T11:20:32.052Z,6484.00
2019-03-10T11:21:32.033Z,6788.00
2019-03-10T11:22:32.023Z,6732.00
2019-03-10T11:23:32.034Z,6448.00
2019-03-10T11:24:32.032Z,6272.00
2019-03-10T11:25:32.048Z,5960.00
2019-03-10T11:26:31.972Z,5704.00
2019-03-10T11:27:31.974Z,5840.00
2019-03-10T11:28:31.971Z,6128.00
2019-03-10T11:29:31.970Z,6452.00
2019-03-10T11:30:31.922Z,7000.00
2019-03-10T11:31:31.918Z,7536.00
2019-03-10T11:32:31.934Z,7708.00
2019-03-10T11:33:31.927Z,7812.00
2019-03-10T11:34:32.116Z,7388.00
2019-03-10T11:35:31.924Z,7244.00
2019-03-10T11:36:31.876Z,7684.00
2019-03-10T11:37:31.854Z,7416.00
2019-03-10T11:38:31.977Z,6988.00
2019-03-10T11:39:31.868Z,6732.00
2019-03-10T11:40:31.858Z,6396.00
2019-03-10T11:41:34.120Z,6208.00
2019-03-10T11:42:31.798Z,6256.00
2019-03-10T11:43:31.821Z,6152.00
2019-03-10T11:44:31.779Z,6044.00
2019-03-10T11:45:31.786Z,6004.00
2019-03-10T11:46:31.767Z,6008.00
2019-03-10T11:47:31.778Z,5988.00
2019-03-10T11:48:31.812Z,6044.00
2019-03-10T11:49:31.728Z,6168.00
2019-03-10T11:50:31.726Z,6116.00
2019-03-10T11:51:31.709Z,5972.00
2019-03-10T11:52:31.712Z,5800.00
2019-03-10T11:53:31.686Z,5688.00
2019-03-10T11:54:31.735Z,5724.00
2019-03-10T11:55:31.673Z,5768.00
2019-03-10T11:56:31.752Z,6004.00
2019-03-10T11:57:31.655Z,6464.00
2019-03-10T11:58:31.648Z,6880.00
2019-03-10T11:59:31.637Z,6964.00
2019-03-10T12:00:31.621Z,6732.00
2019-03-10T12:01:31.616Z,6648.00
2019-03-10T12:02:31.587Z,6704.00
2019-03-10T12:03:31.588Z,6864.00
2019-03-10T12:04:31.644Z,6936.00
2019-03-10T12:05:31.634Z,7164.00
2019-03-10T12:06:31.579Z,7460.00
2019-03-10T12:07:31.532Z,7616.00
2019-03-10T12:08:31.539Z,7616.00
2019-03-10T12:09:31.542Z,7808.00
2019-03-10T12:10:31.565Z,8116.00
2019-03-10T12:11:31.600Z,8600.00
2019-03-10T12:12:31.496Z,8980.00
2019-03-10T12:13:31.513Z,9064.00
2019-03-10T12:14:31.482Z,8840.00
2019-03-10T12:15:31.464Z,8740.00
2019-03-10T12:16:31.489Z,8560.00
2019-03-10T12:17:31.428Z,8460.00
2019-03-10T12:18:31.438Z,8288.00
2019-03-10T12:19:31.475Z,8184.00
2019-03-10T12:20:31.425Z,7776.00
2019-03-10T12:21:31.382Z,6980.00
2019-03-10T12:22:31.389Z,6180.00
2019-03-10T12:23:31.370Z,5736.00
2019-03-10T12:24:31.354Z,5500.00
2019-03-10T12:25:31.369Z,5216.00
2019-03-10T12:26:31.343Z,4940.00
2019-03-10T12:27:31.321Z,4912.00
2019-03-10T12:28:31.352Z,4996.00
2019-03-10T12:29:31.297Z,4944.00
2019-03-10T12:30:31.315Z,4800.00
2019-03-10T12:31:31.289Z,4696.00
2019-03-10T12:32:31.278Z,4664.00
2019-03-10T12:33:31.274Z,4640.00
2019-03-10T12:34:31.247Z,4552.00
2019-03-10T12:35:34.614Z,4464.00
2019-03-10T12:36:31.253Z,4696.00
2019-03-10T12:37:31.220Z,5032.00
2019-03-10T12:38:31.202Z,5168.00
2019-03-10T12:39:31.202Z,5240.00